Etusivu
METAR-TAF:

METAR-TAF

Lentoasemat :

Newton Municipal Airport

Newton, Iowa, Yhdysvallat

Leveyspiiri: 41-41N, Pituuspiiri: 093-01W, korkeus merenpinnasta: 290 m

Tämänhetkinen sää

Tämä raportti tehtiin 27 minuuttia sitten, kello 10.55 UTC
Tuuli 6 kn koillisesta
Lämpötila 21°C
Kosteus 100%
Ilmanpaine 1018 hPa
Näkyvyys: 11.3 km
Pilvistä 9500 ft:n korkeudessa

METAR: KTNU 031055Z AUTO 04006KT 7SM OVC095 21/21 A3005 RMK A01

Aika: 06:22 (11:22 UTC)


TAF: puuttuu

Säähavainnot ja -ennusteet yli 4000 lentoasemalta (METAR- ja TAF-raportit).

Käytössä olevat sääasemat on merkitty karttaan keltaisilla ja punaisilla pisteillä.

Aseta hiiri pisteen päälle nähdäksesi sääaseman nimen.

Klikkaa sitten nähdäksesi säähavainnot ja -ennusteet.

Kartan vaihtaminen: klikkaa mustalla rastilla varustettuja vihreitä pisteitä, niin voit zoomata sisään; viivalla varustettua vihreää pistettä, niin voit zoomata ulos tai vihreitä nuolia, niin pääset viereisille kartoille.


METAR-TAF: